• Join FlightAware (Why Join?)
  • Login
  • US Flag 
05:54PM EST


 

Airport Tracker/Info


-or-


 

Live Flight TrackerFlight Track Log ✈ FFT346 ✈ 30-Apr-2013 ✈ KLAS - KDEN

Flight Track Log - Related Links

Times and Time Zones

All times are in EDT time to prevent confusion due to time zone crossing. See the FFT346 flight status page for this flight to view local times or setup timezone preferences in your user account.

Time Position Orientation Groundspeed Altitude Reporting Facility
EDT Latitude Longitude Course Direction KTS MPH feet Rate Location/Type
09:55AM 36.0761 -115.1683 268° West 176 203 3,000  Level Los Angeles Center
09:56AM 36.0742 -115.2486 268° West 211 243 4,700 1,740 Climbing Los Angeles Center
09:57AM 36.1072 -115.2883 316° Northwest 240 276 6,700 2,520 Climbing Los Angeles Center
09:58AM 36.1767 -115.2458 26° Northeast 271 312 9,600 2,160 Climbing Los Angeles Center
09:59AM 36.1964 -115.1439 76° East 303 349 11,200 1,980 Climbing Los Angeles Center
10:00AM 36.1972 -115.0247 89° East 344 396 13,700 2,280 Climbing Los Angeles Center
10:01AM 36.1992 -114.8997 89° East 358 412 15,900 1,980 Climbing Los Angeles Center
10:02AM 36.2000 -114.7922 89° East 377 434 17,800 2,400 Climbing Los Angeles Center
10:03AM 36.1986 -114.6278 91° East 394 453 20,900 2,340 Climbing Los Angeles Center
10:04AM 36.1964 -114.4858 91° East 407 468 22,600 1,980 Climbing Los Angeles Center
10:05AM 36.1944 -114.3103 91° East 421 484 25,000 1,860 Climbing Los Angeles Center
10:06AM 36.2022 -114.1600 86° East 434 499 26,500 1,560 Climbing Los Angeles Center
10:07AM 36.2222 -114.0064 81° East 448 516 28,200 1,500 Climbing Los Angeles Center
10:08AM 36.2403 -113.8525 82° East 451 519 29,700 1,380 Climbing Los Angeles Center
10:09AM 36.2792 -113.7025 72° East 458 527 31,100 1,200 Climbing Los Angeles Center
10:10AM 36.3356 -113.5597 64° Northeast 461 531 32,200 1,200 Climbing Los Angeles Center
10:11AM 36.3917 -113.4142 64° Northeast 466 536 33,600 1,440 Climbing Los Angeles Center
10:12AM 36.4467 -113.2717 64° Northeast 462 532 35,200 1,380 Climbing Los Angeles Center
10:13AM 36.5058 -113.1189 64° Northeast 457 526 36,500 1,080 Climbing Los Angeles Center
10:14AM 36.5600 -112.9775 64° Northeast 455 524 37,500 960 Climbing Los Angeles Center
10:15AM 36.6136 -112.8381 64° Northeast 451 519 38,500 720 Climbing Los Angeles Center
10:16AM 36.6764 -112.6731 65° Northeast 444 511 39,000 240 Climbing Los Angeles Center
10:17AM 36.7297 -112.5347 64° Northeast 445 512 39,000  Level Los Angeles Center
10:18AM 36.7811 -112.3956 65° Northeast 445 512 39,000  Level Los Angeles Center
10:19AM 36.8336 -112.2578 65° Northeast 443 510 39,000  Level Los Angeles Center
10:21AM 36.8850 -112.1211 65° Northeast 438 504 39,000  Level Los Angeles Center
10:21AM 36.9150 -112.0372 66° East 442 509 39,000  Level Denver Center
10:22AM 36.9672 -111.8950 65° Northeast 450 518 39,000  Level Denver Center
10:23AM 37.0208 -111.7528 65° Northeast 454 522 39,000  Level Denver Center
10:24AM 37.0839 -111.5819 65° Northeast 453 521 39,000  Level Denver Center
10:25AM 37.1358 -111.4400 65° Northeast 452 520 39,000  Level Denver Center
10:26AM 37.1872 -111.2972 66° East 452 520 39,000  Level Denver Center
10:27AM 37.2392 -111.1567 65° Northeast 448 516 39,000 -60 Level Denver Center
10:28AM 37.2897 -111.0142 66° East 448 516 38,900  Descending Denver Center
10:29AM 37.3408 -110.8719 66° East 450 518 39,000 60 Climbing Denver Center
10:30AM 37.4025 -110.6986 66° East 452 520 39,100  Climbing Denver Center
10:31AM 37.4533 -110.5558 66° East 449 517 39,000 -60 Descending Denver Center
10:32AM 37.5003 -110.4228 66° East 452 520 39,000  Level Denver Center
10:33AM 37.5606 -110.2650 64° Northeast 447 514 39,000  Level Denver Center
10:34AM 37.6333 -110.1481 52° Northeast 441 507 39,000  Level Denver Center
10:35AM 37.7186 -110.0097 52° Northeast 445 512 39,000  Level Denver Center
10:37AM 37.7919 -109.8914 52° Northeast 445 512 39,100  Climbing Denver Center
10:38AM 37.8781 -109.7514 52° Northeast 449 517 39,000 -60 Descending Denver Center
10:39AM 37.9356 -109.6156 62° Northeast 460 529 39,000  Level Denver Center
10:40AM 37.9844 -109.4361 71° East 480 552 39,000  Level Denver Center
10:41AM 38.0247 -109.2811 72° East 483 556 39,000  Level Denver Center
10:42AM 38.0675 -109.1236 71° East 489 563 39,000  Level Denver Center
10:43AM 38.1322 -108.9528 64° Northeast 484 557 39,000  Level Denver Center
10:44AM 38.1869 -108.8103 64° Northeast 476 548 39,000  Level Denver Center
10:45AM 38.2522 -108.6422 64° Northeast 476 548 39,000  Level Denver Center
10:46AM 38.3078 -108.4950 64° Northeast 479 551 39,000  Level Denver Center
10:47AM 38.3731 -108.3231 64° Northeast 484 557 39,100  Climbing Denver Center
10:48AM 38.4281 -108.1775 64° Northeast 480 552 39,000 -180 Descending Denver Center
10:49AM 38.4906 -108.0067 65° Northeast 480 552 38,800 -480 Descending Denver Center
10:50AM 38.5236 -107.8467 75° East 490 564 38,100 -780 Descending Denver Center
10:51AM 38.5736 -107.6628 71° East 496 571 37,200 -780 Descending Denver Center
10:52AM 38.6317 -107.5153 63° Northeast 489 563 36,500 -780 Descending Denver Center
10:53AM 38.6986 -107.3408 64° Northeast 491 565 35,600 -840 Descending Denver Center
10:54AM 38.7572 -107.1908 63° Northeast 487 560 34,800 -780 Descending Denver Center
10:55AM 38.8175 -107.0308 64° Northeast 497 572 34,100 -420 Descending Denver Center
10:56AM 38.8789 -106.8722 64° Northeast 499 574 34,000 -240 Descending Denver Center
10:57AM 38.9506 -106.6847 64° Northeast 501 577 33,700 -660 Descending Denver Center
10:58AM 39.0072 -106.5336 64° Northeast 495 570 32,700 -1,140 Descending Denver Center
10:59AM 39.0750 -106.3508 64° Northeast 504 580 31,400 -1,680 Descending Denver Center
11:00AM 39.1317 -106.1972 65° Northeast 503 579 29,300 -2,520 Descending Denver Center
11:01AM 39.1906 -106.0417 64° Northeast 495 570 26,200 -3,300 Descending Denver Center
11:02AM 39.2483 -105.8831 65° Northeast 490 564 22,600 -3,660 Descending Denver Center
11:03AM 39.3181 -105.6933 65° Northeast 492 566 18,700 -2,520 Descending Denver Center
11:04AM 39.3703 -105.5517 64° Northeast 457 526 17,500 -1,020 Descending Denver Center
11:05AM 39.4225 -105.4308 61° Northeast 394 453 16,600 -1,140 Descending Denver Center
11:07AM 39.4811 -105.3186 56° Northeast 353 406 15,200 -1,320 Descending Denver Center
11:08AM 39.5347 -105.2158 56° Northeast 346 398 13,900 -1,080 Descending Denver Center
11:09AM 39.6078 -105.1439 37° Northeast 324 373 13,000 -660 Descending Denver Center
11:10AM 39.6856 -105.1400 North 284 327 12,600 -1,020 Descending Denver Center
11:11AM 39.7583 -105.1078 19° North 273 314 11,000 -1,140 Descending Denver Center
11:12AM 39.8058 -105.0389 48° Northeast 258 297 10,300 -900 Descending Denver Center
11:13AM 39.8322 -104.9686 64° Northeast 220 253 9,200 -1,200 Descending Denver Center
11:14AM 39.8417 -104.8911 81° East 211 243 7,900 -1,200 Descending Denver Center
11:15AM 39.8414 -104.8225 90° East 196 226 6,800 -1,020 Descending Denver Center
11:16AM 39.8411 -104.7656 90° East 150 173 5,900 -780 Descending Denver Center
11:17AM 39.8414 -104.7178 90° East 136 157 5,300 -600 Descending Denver Center
11:19AM 39.8500 -104.6667 161° South  Level FlightAware Approximate
11:26AM 39.8617 -104.6732 161° South  Level Estimated